createdAt,value
2022-12-11T00:00:22.516Z,97.43
2022-12-11T00:02:51.448Z,88.80
2022-12-11T00:05:17.812Z,97.82
2022-12-11T00:07:44.198Z,90.20
2022-12-11T00:10:10.562Z,83.95
2022-12-11T00:12:36.894Z,83.10
2022-12-11T00:15:03.333Z,96.03
2022-12-11T00:17:29.734Z,87.45
2022-12-11T00:19:56.055Z,82.45
2022-12-11T00:22:22.457Z,82.53
2022-12-11T00:24:48.735Z,78.88
2022-12-11T00:27:15.046Z,81.78
2022-12-11T00:29:41.373Z,92.53
2022-12-11T00:32:07.738Z,91.90
2022-12-11T00:34:34.178Z,82.88
2022-12-11T00:37:00.608Z,89.30
2022-12-11T00:39:26.953Z,99.18
2022-12-11T00:41:53.265Z,95.88
2022-12-11T00:44:19.736Z,99.68
2022-12-11T00:46:46.067Z,88.30
2022-12-11T00:49:12.401Z,77.00
2022-12-11T00:51:38.792Z,93.78
2022-12-11T00:54:06.285Z,86.55
2022-12-11T00:56:32.649Z,86.05
2022-12-11T00:58:59.093Z,89.82
2022-12-11T01:01:25.950Z,78.90
2022-12-11T01:03:53.222Z,95.28
2022-12-11T01:06:20.807Z,95.47
2022-12-11T01:08:47.634Z,103.82
2022-12-11T01:11:14.964Z,91.07
2022-12-11T01:13:41.683Z,105.03
2022-12-11T01:16:08.190Z,99.45
2022-12-11T01:18:34.520Z,109.05
2022-12-11T01:21:05.138Z,99.88
2022-12-11T01:23:31.466Z,113.55
2022-12-11T01:25:57.888Z,100.95
2022-12-11T01:28:24.187Z,102.40
2022-12-11T01:30:50.509Z,112.13
2022-12-11T01:33:16.848Z,110.45
2022-12-11T01:35:43.198Z,120.40
2022-12-11T01:38:09.882Z,109.40
2022-12-11T01:40:36.201Z,119.97
2022-12-11T01:43:02.609Z,118.88
2022-12-11T01:45:28.963Z,105.68
2022-12-11T01:48:00.095Z,101.68
2022-12-11T01:50:27.407Z,123.05
2022-12-11T01:52:53.795Z,101.43
2022-12-11T01:55:21.009Z,109.55
2022-12-11T01:57:48.983Z,117.13
2022-12-11T02:00:15.527Z,101.97
2022-12-11T02:02:41.934Z,90.60
2022-12-11T02:05:09.175Z,102.30
2022-12-11T02:07:42.526Z,101.57
2022-12-11T02:10:09.660Z,95.93
2022-12-11T02:12:45.825Z,107.60
2022-12-11T02:15:17.009Z,99.90
2022-12-11T02:18:01.856Z,112.60
2022-12-11T02:20:34.104Z,93.05
2022-12-11T02:23:00.369Z,93.60
2022-12-11T02:25:41.579Z,97.93
2022-12-11T02:28:07.899Z,97.57
2022-12-11T02:30:37.129Z,97.68
2022-12-11T02:33:03.482Z,91.85
2022-12-11T02:35:34.645Z,90.47
2022-12-11T02:38:02.946Z,82.15
2022-12-11T02:40:31.667Z,80.18
2022-12-11T02:42:59.971Z,79.72
2022-12-11T02:45:27.440Z,81.70
2022-12-11T02:47:54.697Z,91.82
2022-12-11T02:50:23.451Z,88.18
2022-12-11T02:52:51.184Z,82.80
2022-12-11T02:55:18.256Z,78.40
2022-12-11T02:57:50.038Z,79.60
2022-12-11T03:00:16.840Z,74.60
2022-12-11T03:02:43.682Z,78.18
2022-12-11T03:05:11.504Z,77.30
2022-12-11T03:07:39.188Z,83.30
2022-12-11T03:10:07.186Z,82.40
2022-12-11T03:12:36.774Z,67.72
2022-12-11T03:15:04.035Z,65.38
2022-12-11T03:17:32.198Z,78.40
2022-12-11T03:20:01.319Z,66.25
2022-12-11T03:22:36.721Z,67.55
2022-12-11T03:25:07.092Z,71.93
2022-12-11T03:27:36.647Z,75.40
2022-12-11T03:30:05.477Z,77.03
2022-12-11T03:32:36.149Z,66.13
2022-12-11T03:35:08.307Z,63.15
2022-12-11T03:37:36.314Z,68.50
2022-12-11T03:40:06.339Z,69.50
2022-12-11T03:42:33.352Z,64.83
2022-12-11T03:45:00.328Z,68.22
2022-12-11T03:47:28.488Z,62.50
2022-12-11T03:49:55.842Z,64.72
2022-12-11T03:52:22.853Z,59.20
2022-12-11T03:54:50.848Z,58.25
2022-12-11T03:57:18.013Z,55.95
2022-12-11T03:59:44.321Z,64.15
2022-12-11T04:02:10.853Z,55.67
2022-12-11T04:04:41.050Z,60.13
2022-12-11T04:07:07.844Z,65.72
2022-12-11T04:09:34.157Z,62.72
2022-12-11T04:12:00.751Z,59.45
2022-12-11T04:14:47.007Z,47.65
2022-12-11T04:17:33.510Z,50.50
2022-12-11T04:20:18.806Z,43.63
2022-12-11T04:23:03.559Z,45.65
2022-12-11T04:25:29.890Z,45.58
2022-12-11T04:27:56.312Z,43.65
2022-12-11T04:30:26.930Z,46.72
2022-12-11T04:32:55.770Z,44.78
2022-12-11T04:35:22.356Z,43.80
2022-12-11T04:37:49.324Z,46.38
2022-12-11T04:40:16.728Z,42.85
2022-12-11T04:42:43.344Z,42.28
2022-12-11T04:45:10.477Z,43.05
2022-12-11T04:47:37.742Z,43.28
2022-12-11T04:50:05.262Z,40.78
2022-12-11T04:52:31.624Z,38.88
2022-12-11T04:54:57.928Z,39.92
2022-12-11T04:57:24.288Z,39.13
2022-12-11T04:59:50.700Z,44.42
2022-12-11T05:02:16.999Z,42.88
2022-12-11T05:04:43.508Z,34.95
2022-12-11T05:07:09.884Z,41.50
2022-12-11T05:09:36.689Z,32.40
2022-12-11T05:12:03.102Z,41.22
2022-12-11T05:14:31.996Z,38.28
2022-12-11T05:16:59.008Z,34.45
2022-12-11T05:19:25.359Z,33.28
2022-12-11T05:21:51.644Z,33.03
2022-12-11T05:24:17.953Z,32.05
2022-12-11T05:26:44.469Z,31.17
2022-12-11T05:29:10.857Z,35.83
2022-12-11T05:31:37.236Z,39.58
2022-12-11T05:34:03.591Z,31.83
2022-12-11T05:36:31.289Z,39.88
2022-12-11T05:38:58.225Z,36.00
2022-12-11T05:41:25.418Z,31.98
2022-12-11T05:43:51.908Z,34.55
2022-12-11T05:46:19.829Z,33.40
2022-12-11T05:48:47.249Z,37.70
2022-12-11T05:51:14.419Z,40.45
2022-12-11T05:53:41.434Z,39.10
2022-12-11T05:56:10.035Z,42.13
2022-12-11T05:58:36.646Z,41.50
2022-12-11T06:01:07.717Z,43.47
2022-12-11T06:03:34.057Z,39.00
2022-12-11T06:06:04.514Z,41.90
2022-12-11T06:08:30.942Z,46.78
2022-12-11T06:10:57.324Z,42.70
2022-12-11T06:13:23.683Z,43.10
2022-12-11T06:15:50.310Z,45.30
2022-12-11T06:18:16.713Z,42.55
2022-12-11T06:20:43.068Z,45.13
2022-12-11T06:23:09.457Z,37.92
2022-12-11T06:25:38.177Z,43.05
2022-12-11T06:28:04.595Z,41.80
2022-12-11T06:30:38.524Z,42.30
2022-12-11T06:33:05.947Z,45.25
2022-12-11T06:35:35.048Z,43.75
2022-12-11T06:38:05.043Z,40.50
2022-12-11T06:40:31.439Z,42.72
2022-12-11T06:42:57.718Z,48.08
2022-12-11T06:45:24.025Z,42.70
2022-12-11T06:47:50.476Z,44.47
2022-12-11T06:50:16.865Z,40.92
2022-12-11T06:52:43.125Z,46.22
2022-12-11T06:55:09.873Z,44.25
2022-12-11T06:57:36.935Z,47.55
2022-12-11T07:00:03.626Z,43.60
2022-12-11T07:02:29.998Z,49.05
2022-12-11T07:04:56.697Z,47.33
2022-12-11T07:07:23.066Z,42.58
2022-12-11T07:09:49.473Z,43.60
2022-12-11T07:12:16.764Z,43.03
2022-12-11T07:14:43.251Z,39.88
2022-12-11T07:17:09.571Z,42.80
2022-12-11T07:19:35.866Z,40.30
2022-12-11T07:22:02.212Z,44.15
2022-12-11T07:24:28.542Z,44.47
2022-12-11T07:26:54.908Z,39.70
2022-12-11T07:29:21.325Z,46.95
2022-12-11T07:31:48.162Z,43.72
2022-12-11T07:34:14.587Z,40.55
2022-12-11T07:36:40.986Z,41.10
2022-12-11T07:39:08.489Z,40.20
2022-12-11T07:41:35.253Z,49.58
2022-12-11T07:44:01.631Z,42.38
2022-12-11T07:46:28.935Z,41.58
2022-12-11T07:48:55.484Z,46.63
2022-12-11T07:51:25.196Z,45.30
2022-12-11T07:53:51.883Z,43.10
2022-12-11T07:56:18.609Z,46.53
2022-12-11T07:58:45.325Z,47.92
2022-12-11T08:01:13.150Z,45.83
2022-12-11T08:03:45.308Z,46.35
2022-12-11T08:06:12.649Z,46.85
2022-12-11T08:08:41.217Z,44.63
2022-12-11T08:11:08.861Z,43.60
2022-12-11T08:13:35.235Z,44.97
2022-12-11T08:16:05.853Z,42.60
2022-12-11T08:18:33.072Z,40.72
2022-12-11T08:20:59.363Z,40.00
2022-12-11T08:23:25.619Z,41.55
2022-12-11T08:25:51.924Z,42.60
2022-12-11T08:28:18.325Z,43.17
2022-12-11T08:30:44.659Z,37.78
2022-12-11T08:33:11.022Z,37.10
2022-12-11T08:35:40.800Z,32.65
2022-12-11T08:38:07.405Z,38.63
2022-12-11T08:40:33.662Z,39.63
2022-12-11T08:42:59.931Z,34.65
2022-12-11T08:45:27.051Z,35.60
2022-12-11T08:47:53.999Z,36.00
2022-12-11T08:50:20.442Z,39.05
2022-12-11T08:52:46.713Z,38.13
2022-12-11T08:55:13.368Z,37.90
2022-12-11T08:57:40.021Z,36.60
2022-12-11T09:00:07.155Z,36.50
2022-12-11T09:02:33.467Z,36.88
2022-12-11T09:04:59.843Z,34.33
2022-12-11T09:07:26.550Z,34.58
2022-12-11T09:09:55.933Z,36.83
2022-12-11T09:12:23.029Z,36.47
2022-12-11T09:14:49.527Z,37.10
2022-12-11T09:17:15.905Z,39.05
2022-12-11T09:19:42.343Z,40.67
2022-12-11T09:22:11.127Z,36.53
2022-12-11T09:24:37.905Z,39.60
2022-12-11T09:27:04.769Z,41.70
2022-12-11T09:29:31.343Z,34.03
2022-12-11T09:31:57.661Z,35.58
2022-12-11T09:34:29.098Z,37.35
2022-12-11T09:36:55.909Z,36.97
2022-12-11T09:39:22.214Z,38.10
2022-12-11T09:42:12.898Z,32.42
2022-12-11T09:44:42.367Z,36.20
2022-12-11T09:47:21.083Z,37.92
2022-12-11T09:49:49.225Z,41.40
2022-12-11T09:52:18.297Z,40.33
2022-12-11T09:54:49.497Z,37.28
2022-12-11T09:57:31.018Z,34.47
2022-12-11T10:00:06.037Z,35.78
2022-12-11T10:02:45.616Z,36.35
2022-12-11T10:05:41.490Z,37.72
2022-12-11T10:08:31.306Z,34.95
2022-12-11T10:11:04.844Z,35.40
2022-12-11T10:13:31.215Z,35.53
2022-12-11T10:15:57.613Z,33.30
2022-12-11T10:18:26.281Z,34.55
2022-12-11T10:20:52.922Z,34.65
2022-12-11T10:23:28.893Z,33.50
2022-12-11T10:26:10.233Z,32.72
2022-12-11T10:28:36.592Z,34.05
2022-12-11T10:31:18.559Z,40.60
2022-12-11T10:33:44.906Z,31.90
2022-12-11T10:36:13.680Z,33.25
2022-12-11T10:38:44.027Z,31.85
2022-12-11T10:41:11.879Z,45.42
2022-12-11T10:43:42.528Z,33.97
2022-12-11T10:46:16.818Z,34.33
2022-12-11T10:48:47.642Z,30.67
2022-12-11T10:51:14.165Z,34.50
2022-12-11T10:53:40.543Z,38.90
2022-12-11T10:56:06.973Z,35.70
2022-12-11T10:58:35.551Z,28.23
2022-12-11T11:01:09.552Z,36.33
2022-12-11T11:03:37.766Z,49.72
2022-12-11T11:06:15.014Z,31.15
2022-12-11T11:08:44.099Z,34.75
2022-12-11T11:11:20.292Z,30.05
2022-12-11T11:13:46.603Z,39.67
2022-12-11T11:16:15.501Z,27.20
2022-12-11T11:18:43.415Z,28.88
2022-12-11T11:21:16.835Z,31.95
2022-12-11T11:23:47.241Z,30.38
2022-12-11T11:26:17.356Z,26.20
2022-12-11T11:28:47.920Z,27.48
2022-12-11T11:31:15.093Z,27.70
2022-12-11T11:33:47.229Z,29.67
2022-12-11T11:36:21.750Z,29.77
2022-12-11T11:39:06.586Z,27.65
2022-12-11T11:41:48.254Z,30.75
2022-12-11T11:44:16.892Z,27.25
2022-12-11T11:46:49.164Z,30.60
2022-12-11T11:49:15.477Z,28.30
2022-12-11T11:51:47.713Z,30.45
2022-12-11T11:54:32.934Z,32.38
2022-12-11T11:57:01.451Z,28.73
2022-12-11T11:59:31.233Z,28.27
2022-12-11T12:01:57.864Z,26.98
2022-12-11T12:04:25.446Z,28.23
2022-12-11T12:07:10.080Z,25.38
2022-12-11T12:09:36.486Z,27.08
2022-12-11T12:12:27.422Z,25.42
2022-12-11T12:15:11.875Z,28.20
2022-12-11T12:17:58.358Z,31.55
2022-12-11T12:20:43.275Z,26.02
2022-12-11T12:23:24.980Z,32.38
2022-12-11T12:25:54.373Z,27.15
2022-12-11T12:28:20.695Z,24.45
2022-12-11T12:30:47.013Z,31.67
2022-12-11T12:33:19.244Z,28.20
2022-12-11T12:36:00.837Z,28.65
2022-12-11T12:38:42.887Z,35.42
2022-12-11T12:41:14.169Z,35.13
2022-12-11T12:43:47.581Z,25.83
2022-12-11T12:46:27.377Z,39.63
2022-12-11T12:48:55.092Z,36.53
2022-12-11T12:51:21.403Z,31.27
2022-12-11T12:53:49.905Z,27.70
2022-12-11T12:56:16.499Z,28.65
2022-12-11T12:58:43.972Z,31.48
2022-12-11T13:01:13.314Z,31.08
2022-12-11T13:04:20.861Z,33.10
2022-12-11T13:06:53.009Z,30.63
2022-12-11T13:09:23.835Z,44.05
2022-12-11T13:11:53.710Z,33.63
2022-12-11T13:14:21.047Z,41.90
2022-12-11T13:16:48.452Z,37.20
2022-12-11T13:19:33.132Z,33.17
2022-12-11T13:22:04.719Z,33.55
2022-12-11T13:24:32.229Z,38.90
2022-12-11T13:27:08.888Z,36.53
2022-12-11T13:29:36.436Z,32.92
2022-12-11T13:32:02.756Z,36.20
2022-12-11T13:34:33.697Z,38.03
2022-12-11T13:39:27.944Z,37.10
2022-12-11T13:42:02.179Z,37.13
2022-12-11T13:44:38.147Z,38.80
2022-12-11T13:47:05.913Z,39.70
2022-12-11T13:49:37.183Z,40.88
2022-12-11T13:52:04.284Z,36.05
2022-12-11T13:54:31.993Z,45.33
2022-12-11T13:57:15.253Z,40.80
2022-12-11T13:59:43.109Z,39.03
2022-12-11T14:02:19.757Z,38.80
2022-12-11T14:04:46.459Z,37.90
2022-12-11T14:07:13.007Z,39.42
2022-12-11T14:09:43.434Z,62.30
2022-12-11T14:12:29.153Z,43.25
2022-12-11T14:14:56.989Z,44.97
2022-12-11T14:17:31.458Z,43.97
2022-12-11T14:20:00.244Z,47.53
2022-12-11T14:22:28.151Z,44.55
2022-12-11T14:24:56.015Z,44.17
2022-12-11T14:27:22.837Z,50.25
2022-12-11T14:29:50.002Z,42.72
2022-12-11T14:32:31.427Z,41.35
2022-12-11T14:34:58.170Z,45.40
2022-12-11T14:37:25.199Z,45.22
2022-12-11T14:40:14.474Z,72.45
2022-12-11T14:42:42.528Z,58.17
2022-12-11T14:45:15.926Z,56.90
2022-12-11T14:47:43.299Z,54.42
2022-12-11T14:50:14.357Z,41.53
2022-12-11T14:52:44.075Z,41.03
2022-12-11T14:55:10.640Z,41.75
2022-12-11T14:57:40.093Z,44.78
2022-12-11T15:00:06.918Z,38.75
2022-12-11T15:02:34.594Z,39.67
2022-12-11T15:05:14.537Z,43.33
2022-12-11T15:07:53.897Z,43.50
2022-12-11T15:10:36.378Z,44.13
2022-12-11T15:13:03.749Z,37.13
2022-12-11T15:15:31.469Z,43.03
2022-12-11T15:17:57.916Z,38.83
2022-12-11T15:20:29.317Z,35.47
2022-12-11T15:22:57.506Z,37.90
2022-12-11T15:25:25.104Z,41.67
2022-12-11T15:27:53.062Z,41.78
2022-12-11T15:30:26.681Z,37.20
2022-12-11T15:33:03.331Z,41.92
2022-12-11T15:35:29.743Z,40.35
2022-12-11T15:37:57.015Z,39.70
2022-12-11T15:40:23.388Z,38.08
2022-12-11T15:42:50.449Z,37.78
2022-12-11T15:45:21.240Z,37.55
2022-12-11T15:47:48.350Z,40.33
2022-12-11T15:50:17.542Z,40.08
2022-12-11T15:52:43.851Z,41.78
2022-12-11T15:55:11.054Z,37.40
2022-12-11T15:57:37.702Z,41.22
2022-12-11T16:00:06.390Z,44.33
2022-12-11T16:02:32.831Z,36.75
2022-12-11T16:04:59.176Z,41.38
2022-12-11T16:07:26.019Z,42.25
2022-12-11T16:09:52.493Z,34.67
2022-12-11T16:12:19.095Z,39.50
2022-12-11T16:14:45.837Z,41.05
2022-12-11T16:17:12.992Z,38.90
2022-12-11T16:19:40.084Z,45.13
2022-12-11T16:22:06.875Z,58.25
2022-12-11T16:24:33.317Z,35.70
2022-12-11T16:26:59.818Z,37.47
2022-12-11T16:29:26.196Z,38.88
2022-12-11T16:31:52.569Z,51.90
2022-12-11T16:34:18.927Z,44.10
2022-12-11T16:36:45.295Z,42.25
2022-12-11T16:39:12.213Z,72.68
2022-12-11T16:41:39.667Z,40.17
2022-12-11T16:44:06.621Z,38.70
2022-12-11T16:46:33.054Z,50.08
2022-12-11T16:49:02.231Z,43.78
2022-12-11T16:51:28.601Z,43.60
2022-12-11T16:53:55.793Z,94.78
2022-12-11T16:56:22.149Z,35.53
2022-12-11T16:58:48.695Z,49.38
2022-12-11T17:01:15.352Z,52.40
2022-12-11T17:03:42.333Z,52.30
2022-12-11T17:06:10.224Z,52.45
2022-12-11T17:08:37.143Z,43.92
2022-12-11T17:11:11.188Z,38.17
2022-12-11T17:13:37.804Z,37.45
2022-12-11T17:16:07.934Z,37.38
2022-12-11T17:18:34.355Z,33.03
2022-12-11T17:21:05.117Z,39.05
2022-12-11T17:23:31.494Z,36.80
2022-12-11T17:25:57.800Z,29.67
2022-12-11T17:28:24.090Z,32.38
2022-12-11T17:30:52.444Z,30.48
2022-12-11T17:33:18.753Z,35.03
2022-12-11T17:35:45.213Z,49.95
2022-12-11T17:38:11.644Z,36.90
2022-12-11T17:40:41.428Z,37.65
2022-12-11T17:43:09.351Z,36.75
2022-12-11T17:45:42.862Z,32.72
2022-12-11T17:48:09.227Z,32.28
2022-12-11T17:50:35.543Z,29.52
2022-12-11T17:53:01.853Z,29.00
2022-12-11T17:55:28.255Z,33.75
2022-12-11T17:57:54.743Z,30.83
2022-12-11T18:00:21.118Z,65.95
2022-12-11T18:02:47.420Z,42.38
2022-12-11T18:05:14.069Z,33.45
2022-12-11T18:07:40.539Z,29.30
2022-12-11T18:10:07.059Z,36.00
2022-12-11T18:12:34.672Z,31.83
2022-12-11T18:15:01.978Z,29.85
2022-12-11T18:17:28.340Z,34.20
2022-12-11T18:19:54.622Z,35.25
2022-12-11T18:22:20.995Z,35.08
2022-12-11T18:24:47.335Z,34.63
2022-12-11T18:27:15.071Z,33.92
2022-12-11T18:29:41.348Z,28.25
2022-12-11T18:32:07.658Z,26.35
2022-12-11T18:34:34.342Z,31.17
2022-12-11T18:37:00.682Z,25.02
2022-12-11T18:39:26.965Z,31.92
2022-12-11T18:42:23.925Z,25.65
2022-12-11T18:44:39.677Z,23.58
2022-12-11T18:47:06.903Z,25.65
2022-12-11T18:49:33.231Z,25.67
2022-12-11T18:51:59.597Z,26.75
2022-12-11T18:54:25.881Z,28.45
2022-12-11T18:56:52.149Z,23.90
2022-12-11T18:59:18.437Z,21.63
2022-12-11T19:01:44.754Z,20.83
2022-12-11T19:04:11.275Z,23.67
2022-12-11T19:06:37.624Z,26.40
2022-12-11T19:09:04.827Z,24.38
2022-12-11T19:11:31.696Z,27.50
2022-12-11T19:13:58.342Z,26.13
2022-12-11T19:16:26.216Z,34.92
2022-12-11T19:18:52.786Z,27.40
2022-12-11T19:21:19.038Z,28.92
2022-12-11T19:23:45.804Z,26.48
2022-12-11T19:26:13.159Z,24.98
2022-12-11T19:28:39.720Z,23.42
2022-12-11T19:31:12.854Z,24.48
2022-12-11T19:33:39.783Z,24.63
2022-12-11T19:36:07.606Z,26.33
2022-12-11T19:38:33.976Z,22.95
2022-12-11T19:41:04.310Z,25.13
2022-12-11T19:43:30.602Z,23.45
2022-12-11T19:45:56.924Z,25.65
2022-12-11T19:48:23.217Z,23.55
2022-12-11T19:50:49.483Z,31.02
2022-12-11T19:53:15.745Z,28.05
2022-12-11T19:55:48.562Z,25.63
2022-12-11T19:58:15.570Z,28.88
2022-12-11T20:00:41.953Z,27.30
2022-12-11T20:03:08.351Z,25.52
2022-12-11T20:05:34.686Z,28.15
2022-12-11T20:08:20.549Z,28.83
2022-12-11T20:10:47.425Z,28.75
2022-12-11T20:13:14.059Z,33.50
2022-12-11T20:15:40.484Z,29.23
2022-12-11T20:18:06.816Z,37.45
2022-12-11T20:20:33.252Z,30.10
2022-12-11T20:22:59.938Z,31.15
2022-12-11T20:25:27.291Z,31.05
2022-12-11T20:27:55.604Z,33.55
2022-12-11T20:30:23.547Z,39.58
2022-12-11T20:32:52.936Z,30.90
2022-12-11T20:35:19.320Z,25.58
2022-12-11T20:37:45.615Z,29.92
2022-12-11T20:40:12.778Z,30.20
2022-12-11T20:42:39.305Z,28.92
2022-12-11T20:45:06.336Z,26.98
2022-12-11T20:47:32.698Z,23.77
2022-12-11T20:49:59.062Z,25.92
2022-12-11T20:52:25.460Z,27.38
2022-12-11T20:54:51.784Z,30.15
2022-12-11T20:57:18.236Z,30.55
2022-12-11T20:59:45.311Z,25.67
2022-12-11T21:02:12.253Z,27.45
2022-12-11T21:04:40.941Z,31.25
2022-12-11T21:07:07.940Z,28.45
2022-12-11T21:09:34.584Z,34.72
2022-12-11T21:12:01.848Z,28.33
2022-12-11T21:14:29.285Z,28.02
2022-12-11T21:16:55.796Z,28.92
2022-12-11T21:19:22.575Z,28.83
2022-12-11T21:21:49.348Z,30.58
2022-12-11T21:24:21.987Z,27.27
2022-12-11T21:26:49.267Z,25.42
2022-12-11T21:29:16.567Z,29.50
2022-12-11T21:31:43.149Z,28.65
2022-12-11T21:34:09.586Z,30.80
2022-12-11T21:36:35.902Z,27.58
2022-12-11T21:39:02.815Z,28.15
2022-12-11T21:41:29.121Z,26.35
2022-12-11T21:45:14.576Z,27.75
2022-12-11T21:46:42.763Z,30.27
2022-12-11T21:49:09.176Z,29.63
2022-12-11T21:51:40.367Z,27.08
2022-12-11T21:54:13.264Z,30.13
2022-12-11T21:56:39.948Z,28.33
2022-12-11T21:59:06.788Z,29.75
2022-12-11T22:01:35.323Z,28.85
2022-12-11T22:04:02.149Z,25.45
2022-12-11T22:06:28.528Z,24.52
2022-12-11T22:08:54.916Z,28.55
2022-12-11T22:11:22.589Z,26.83
2022-12-11T22:13:49.036Z,24.85
2022-12-11T22:16:15.460Z,29.08
2022-12-11T22:18:41.939Z,26.25
2022-12-11T22:21:08.250Z,27.33
2022-12-11T22:23:34.658Z,28.85
2022-12-11T22:26:01.123Z,29.35
2022-12-11T22:28:27.608Z,28.95
2022-12-11T22:30:54.112Z,27.15
2022-12-11T22:33:20.473Z,26.95
2022-12-11T22:35:46.826Z,27.52
2022-12-11T22:38:13.239Z,30.08
2022-12-11T22:40:41.172Z,26.42
2022-12-11T22:43:07.526Z,29.75
2022-12-11T22:45:37.638Z,26.30
2022-12-11T22:48:04.166Z,28.35
2022-12-11T22:50:30.513Z,30.15
2022-12-11T22:52:56.926Z,32.28
2022-12-11T22:55:23.317Z,30.85
2022-12-11T22:57:49.734Z,30.35
2022-12-11T23:00:16.522Z,28.45
2022-12-11T23:02:43.081Z,28.25
2022-12-11T23:05:10.661Z,30.73
2022-12-11T23:07:37.274Z,35.30
2022-12-11T23:10:04.468Z,28.65
2022-12-11T23:12:30.809Z,28.15
2022-12-11T23:14:57.145Z,27.15
2022-12-11T23:17:23.548Z,32.50
2022-12-11T23:19:49.954Z,29.95
2022-12-11T23:22:16.395Z,29.38
2022-12-11T23:24:42.785Z,29.80
2022-12-11T23:27:09.234Z,31.63
2022-12-11T23:29:35.901Z,27.55
2022-12-11T23:32:02.514Z,28.55
2022-12-11T23:34:29.008Z,30.50
2022-12-11T23:36:55.344Z,30.60
2022-12-11T23:39:21.755Z,26.52
2022-12-11T23:41:48.033Z,28.70
2022-12-11T23:44:14.403Z,32.15
2022-12-11T23:46:42.593Z,29.38
2022-12-11T23:49:08.976Z,27.45
2022-12-11T23:51:35.376Z,29.98
2022-12-11T23:54:01.671Z,31.00
2022-12-11T23:56:28.822Z,26.30
2022-12-11T23:58:55.532Z,26.75
